HISTORICAL SENSOR DATA

Sensor Data Report

DB LIVE
CURRENT TIME--:--:--
DEVICE NETWORK Gateway Status
13 ESP · realtime ~1s · history 60s
Weather WS-MOD-01
ONLINE
Actuator ACT-MOD-01
OFFLINE
Mainboard L3 MB-L3-01
ONLINE
Mainboard L5 MB-L5-01
ONLINE
Remote AC AC-REMOTE-01
ONLINE
PZEM L3-01 PWR-L3-01
OFFLINE
PZEM L3-02 PWR-L3-02
OFFLINE
PZEM L3-03 PWR-L3-03
OFFLINE
PZEM L3-04 PWR-L3-04
OFFLINE
PZEM L5-01 PWR-L5-01
ONLINE
PZEM L5-02 PWR-L5-02
ONLINE
PZEM L5-03 PWR-L5-03
OFFLINE
PZEM L5-04 PWR-L5-04
OFFLINE
REPORT FILTER

Periode & Sensor

DATABASE HISTORY
RESET
QUICK RANGE Hari ini 7 hari 30 hari
PERIODE31 Aug 2026sampai 06 Sep 2026
TOTAL DATA64,989sensor readings
MINIMUM-0.50sesuai filter
AVERAGE87.04sesuai filter
MAXIMUM32,564.20sesuai filter
REPORT RESULT

Data Sensor

31/08/2026 — 06/09/2026 EXPORT CSV
NOTANGGALWAKTUDEVICECHANNELSENSORVALUEUNIT
12701 06/09/2026 20:07:00 MB-L5-01Mainboard Lantai 5 L5-AI-03 Analog Input 3 3.05 V
12702 06/09/2026 20:07:00 MB-L5-01Mainboard Lantai 5 L5-LUX-03 Illuminance / LUX 3 398.10 lux
12703 06/09/2026 20:07:00 MB-L3-01Mainboard Lantai 3 L3-SHT-03-RH SHT20 3 Humidity 44.20 %RH
12704 06/09/2026 20:07:00 MB-L3-01Mainboard Lantai 3 L3-AI-01 Analog Input 1 3.12 V
12705 06/09/2026 20:07:00 MB-L5-01Mainboard Lantai 5 L5-RAD-02 Radiation 2 1.00 W/m²
12706 06/09/2026 20:07:00 MB-L5-01Mainboard Lantai 5 L5-BGT-03 Black Globe Temperature 3 27.40 °C
12707 06/09/2026 20:07:00 MB-L3-01Mainboard Lantai 3 L3-AI-06 Analog Input 6 3.12 V
12708 06/09/2026 20:07:00 PWR-L5-01Power Meter L5 PZEM 01 PZEM-L5-01-PF PZEM L5-01 Power Factor 0.41
12709 06/09/2026 20:07:00 AC-REMOTE-01Remote AC AC-SETPOINT AC Set Temperature 23.00 °C
12710 06/09/2026 20:07:00 MB-L5-01Mainboard Lantai 5 L5-AI-04 Analog Input 4 3.05 V
12711 06/09/2026 20:07:00 PWR-L5-01Power Meter L5 PZEM 01 PZEM-L5-01-FREQ PZEM L5-01 Frequency 49.90 Hz
12712 06/09/2026 20:07:00 MB-L3-01Mainboard Lantai 3 L3-RAD-02 Radiation 2 1.00 W/m²
12713 06/09/2026 20:07:00 PWR-L5-01Power Meter L5 PZEM 01 PZEM-L5-01-ENERGY PZEM L5-01 Energy 0.02 kWh
12714 06/09/2026 20:07:00 MB-L5-01Mainboard Lantai 5 L5-SHT-01-T SHT20 1 Temperature 29.20 °C
12715 06/09/2026 20:07:00 MB-L3-01Mainboard Lantai 3 L3-SHT-01-RH SHT20 1 Humidity 44.70 %RH
12716 06/09/2026 20:07:00 PWR-L5-02Power Meter L5 PZEM 02 PZEM-L5-02-CURR PZEM L5-02 Current 0.75 A
12717 06/09/2026 20:07:00 MB-L5-01Mainboard Lantai 5 L5-SHT-03-RH SHT20 3 Humidity 47.30 %RH
12718 06/09/2026 20:07:00 PWR-L5-01Power Meter L5 PZEM 01 PZEM-L5-01-POWER PZEM L5-01 Active Power 11.00 W
12719 06/09/2026 20:07:00 PWR-L5-02Power Meter L5 PZEM 02 PZEM-L5-02-ENERGY PZEM L5-02 Energy 0.00 kWh
12720 06/09/2026 20:07:00 MB-L5-01Mainboard Lantai 5 L5-ST-01 Surface Temperature 1 25.60 °C
12721 06/09/2026 20:07:00 MB-L3-01Mainboard Lantai 3 L3-AI-02 Analog Input 2 3.12 V
12722 06/09/2026 20:07:00 PWR-L5-01Power Meter L5 PZEM 01 PZEM-L5-01-CURR PZEM L5-01 Current 0.12 A
12723 06/09/2026 20:07:00 MB-L3-01Mainboard Lantai 3 L3-SHT-02-T SHT20 2 Temperature 29.40 °C
12724 06/09/2026 20:07:00 PWR-L5-01Power Meter L5 PZEM 01 PZEM-L5-01-VOLT PZEM L5-01 Voltage 225.50 V
12725 06/09/2026 20:07:00 WS-MOD-01Weather Station Module WS-TEMP Suhu Udara 21.20 °C
12726 06/09/2026 20:07:00 AC-REMOTE-01Remote AC AC-FAN AC Fan Speed 0.00 code
12727 06/09/2026 20:07:00 MB-L5-01Mainboard Lantai 5 L5-RAD-01 Radiation 1 1.00 W/m²
12728 06/09/2026 20:07:00 PWR-L5-02Power Meter L5 PZEM 02 PZEM-L5-02-PF PZEM L5-02 Power Factor 0.97
12729 06/09/2026 20:07:00 MB-L5-01Mainboard Lantai 5 L5-LUX-04 Illuminance / LUX 4 261.70 lux
12730 06/09/2026 20:07:00 MB-L5-01Mainboard Lantai 5 L5-AI-05 Analog Input 5 3.05 V
12731 06/09/2026 20:07:00 MB-L5-01Mainboard Lantai 5 L5-ST-02 Surface Temperature 2 25.20 °C
12732 06/09/2026 20:07:00 MB-L3-01Mainboard Lantai 3 L3-SHT-02-RH SHT20 2 Humidity 44.30 %RH
12733 06/09/2026 20:07:00 WS-MOD-01Weather Station Module WS-PRES Tekanan Udara 912.00 hPa
12734 06/09/2026 20:07:00 MB-L3-01Mainboard Lantai 3 L3-LUX-06 Illuminance / LUX 6 540.40 lux
12735 06/09/2026 20:07:00 MB-L5-01Mainboard Lantai 5 L5-SHT-03-T SHT20 3 Temperature 29.30 °C
12736 06/09/2026 20:07:00 MB-L3-01Mainboard Lantai 3 L3-AI-03 Analog Input 3 3.12 V
12737 06/09/2026 20:07:00 MB-L5-01Mainboard Lantai 5 L5-LUX-02 Illuminance / LUX 2 174.40 lux
12738 06/09/2026 20:07:00 MB-L3-01Mainboard Lantai 3 L3-LUX-03 Illuminance / LUX 3 733.90 lux
12739 06/09/2026 20:07:00 MB-L5-01Mainboard Lantai 5 L5-AI-06 Analog Input 6 3.05 V
12740 06/09/2026 20:07:00 MB-L5-01Mainboard Lantai 5 L5-HFT-01 Heat Flow Temperature 1 25.50 °C
12741 06/09/2026 20:07:00 AC-REMOTE-01Remote AC AC-POWER AC Power State 1.00 state
12742 06/09/2026 20:07:00 MB-L5-01Mainboard Lantai 5 L5-AI-01 Analog Input 1 3.05 V
12743 06/09/2026 20:07:00 MB-L5-01Mainboard Lantai 5 L5-SHT-02-RH SHT20 2 Humidity 47.20 %RH
12744 06/09/2026 20:07:00 PWR-L5-02Power Meter L5 PZEM 02 PZEM-L5-02-VOLT PZEM L5-02 Voltage 225.20 V
12745 06/09/2026 20:07:00 MB-L3-01Mainboard Lantai 3 L3-SHT-01-T SHT20 1 Temperature 29.10 °C
12746 06/09/2026 20:07:00 MB-L3-01Mainboard Lantai 3 L3-SHT-03-T SHT20 3 Temperature 29.50 °C
12747 06/09/2026 20:07:00 MB-L5-01Mainboard Lantai 5 L5-BGT-01 Black Globe Temperature 1 27.60 °C
12748 06/09/2026 20:07:00 MB-L3-01Mainboard Lantai 3 L3-AI-04 Analog Input 4 3.12 V
12749 06/09/2026 20:07:00 AC-REMOTE-01Remote AC AC-MODE AC Operating Mode 1.00 code
12750 06/09/2026 20:07:00 PWR-L5-02Power Meter L5 PZEM 02 PZEM-L5-02-POWER PZEM L5-02 Active Power 164.70 W
12751 06/09/2026 20:07:00 MB-L5-01Mainboard Lantai 5 L5-HFT-02 Heat Flow Temperature 2 24.80 °C
12752 06/09/2026 20:07:00 MB-L3-01Mainboard Lantai 3 L3-LUX-01 Illuminance / LUX 1 503.50 lux
12753 06/09/2026 20:07:00 MB-L5-01Mainboard Lantai 5 L5-SHT-02-T SHT20 2 Temperature 29.40 °C
12754 06/09/2026 20:07:00 MB-L5-01Mainboard Lantai 5 L5-AI-02 Analog Input 2 3.05 V
12755 06/09/2026 20:07:00 PWR-L5-02Power Meter L5 PZEM 02 PZEM-L5-02-FREQ PZEM L5-02 Frequency 49.90 Hz
12756 06/09/2026 20:07:00 WS-MOD-01Weather Station Module WS-WIND Kecepatan Angin 5.35 m/s
12757 06/09/2026 20:07:00 WS-MOD-01Weather Station Module WS-DIR Arah Angin 172.90 °
12758 06/09/2026 20:07:00 MB-L3-01Mainboard Lantai 3 L3-LUX-04 Illuminance / LUX 4 585.40 lux
12759 06/09/2026 20:07:00 MB-L5-01Mainboard Lantai 5 L5-SHT-01-RH SHT20 1 Humidity 47.50 %RH
12760 06/09/2026 20:07:00 WS-MOD-01Weather Station Module WS-RH Kelembapan Udara 70.80 %RH
12761 06/09/2026 20:07:00 MB-L3-01Mainboard Lantai 3 L3-LUX-02 Illuminance / LUX 2 615.40 lux
12762 06/09/2026 20:07:00 MB-L3-01Mainboard Lantai 3 L3-LUX-05 Illuminance / LUX 5 389.90 lux
12763 06/09/2026 20:07:00 MB-L3-01Mainboard Lantai 3 L3-RAD-01 Radiation 1 1.00 W/m²
12764 06/09/2026 20:07:00 MB-L5-01Mainboard Lantai 5 L5-BGT-02 Black Globe Temperature 2 27.60 °C
12765 06/09/2026 20:07:00 MB-L3-01Mainboard Lantai 3 L3-AI-05 Analog Input 5 3.12 V
12766 06/09/2026 20:06:00 MB-L5-01Mainboard Lantai 5 L5-AI-04 Analog Input 4 3.05 V
12767 06/09/2026 20:06:00 PWR-L5-01Power Meter L5 PZEM 01 PZEM-L5-01-FREQ PZEM L5-01 Frequency 50.00 Hz
12768 06/09/2026 20:06:00 MB-L3-01Mainboard Lantai 3 L3-RAD-02 Radiation 2 1.00 W/m²
12769 06/09/2026 20:06:00 PWR-L5-01Power Meter L5 PZEM 01 PZEM-L5-01-ENERGY PZEM L5-01 Energy 0.02 kWh
12770 06/09/2026 20:06:00 MB-L5-01Mainboard Lantai 5 L5-SHT-01-T SHT20 1 Temperature 29.20 °C
12771 06/09/2026 20:06:00 MB-L3-01Mainboard Lantai 3 L3-SHT-01-RH SHT20 1 Humidity 44.70 %RH
12772 06/09/2026 20:06:00 PWR-L5-02Power Meter L5 PZEM 02 PZEM-L5-02-CURR PZEM L5-02 Current 0.76 A
12773 06/09/2026 20:06:00 MB-L5-01Mainboard Lantai 5 L5-SHT-03-RH SHT20 3 Humidity 47.20 %RH
12774 06/09/2026 20:06:00 PWR-L5-01Power Meter L5 PZEM 01 PZEM-L5-01-POWER PZEM L5-01 Active Power 10.70 W
12775 06/09/2026 20:06:00 PWR-L5-02Power Meter L5 PZEM 02 PZEM-L5-02-ENERGY PZEM L5-02 Energy 0.00 kWh
12776 06/09/2026 20:06:00 MB-L5-01Mainboard Lantai 5 L5-ST-01 Surface Temperature 1 25.50 °C
12777 06/09/2026 20:06:00 MB-L3-01Mainboard Lantai 3 L3-AI-02 Analog Input 2 3.12 V
12778 06/09/2026 20:06:00 PWR-L5-01Power Meter L5 PZEM 01 PZEM-L5-01-CURR PZEM L5-01 Current 0.12 A
12779 06/09/2026 20:06:00 MB-L3-01Mainboard Lantai 3 L3-SHT-02-T SHT20 2 Temperature 29.40 °C
12780 06/09/2026 20:06:00 PWR-L5-01Power Meter L5 PZEM 01 PZEM-L5-01-VOLT PZEM L5-01 Voltage 225.60 V
12781 06/09/2026 20:06:00 WS-MOD-01Weather Station Module WS-TEMP Suhu Udara 21.30 °C
12782 06/09/2026 20:06:00 AC-REMOTE-01Remote AC AC-FAN AC Fan Speed 0.00 code
12783 06/09/2026 20:06:00 MB-L5-01Mainboard Lantai 5 L5-RAD-01 Radiation 1 1.00 W/m²
12784 06/09/2026 20:06:00 PWR-L5-02Power Meter L5 PZEM 02 PZEM-L5-02-PF PZEM L5-02 Power Factor 0.97
12785 06/09/2026 20:06:00 MB-L5-01Mainboard Lantai 5 L5-LUX-04 Illuminance / LUX 4 133.60 lux
12786 06/09/2026 20:06:00 MB-L5-01Mainboard Lantai 5 L5-AI-05 Analog Input 5 3.05 V
12787 06/09/2026 20:06:00 MB-L5-01Mainboard Lantai 5 L5-ST-02 Surface Temperature 2 25.10 °C
12788 06/09/2026 20:06:00 MB-L3-01Mainboard Lantai 3 L3-SHT-02-RH SHT20 2 Humidity 44.30 %RH
12789 06/09/2026 20:06:00 WS-MOD-01Weather Station Module WS-PRES Tekanan Udara 912.00 hPa
12790 06/09/2026 20:06:00 MB-L3-01Mainboard Lantai 3 L3-LUX-06 Illuminance / LUX 6 541.60 lux
12791 06/09/2026 20:06:00 MB-L5-01Mainboard Lantai 5 L5-SHT-03-T SHT20 3 Temperature 29.40 °C
12792 06/09/2026 20:06:00 MB-L3-01Mainboard Lantai 3 L3-AI-03 Analog Input 3 3.12 V
12793 06/09/2026 20:06:00 MB-L5-01Mainboard Lantai 5 L5-LUX-02 Illuminance / LUX 2 175.50 lux
12794 06/09/2026 20:06:00 MB-L3-01Mainboard Lantai 3 L3-LUX-03 Illuminance / LUX 3 734.20 lux
12795 06/09/2026 20:06:00 MB-L5-01Mainboard Lantai 5 L5-AI-06 Analog Input 6 3.05 V
12796 06/09/2026 20:06:00 MB-L5-01Mainboard Lantai 5 L5-HFT-01 Heat Flow Temperature 1 25.40 °C
12797 06/09/2026 20:06:00 AC-REMOTE-01Remote AC AC-POWER AC Power State 1.00 state
12798 06/09/2026 20:06:00 MB-L5-01Mainboard Lantai 5 L5-AI-01 Analog Input 1 3.05 V
12799 06/09/2026 20:06:00 MB-L5-01Mainboard Lantai 5 L5-SHT-02-RH SHT20 2 Humidity 47.40 %RH
12800 06/09/2026 20:06:00 PWR-L5-02Power Meter L5 PZEM 02 PZEM-L5-02-VOLT PZEM L5-02 Voltage 225.30 V
Menampilkan maksimal 100 data per halaman